• Join FlightAware (Why Join?)
  • Login
  • US Flag 
02:27AM EST


 

Airport Tracker/Info


-or-


 

Live Flight TrackerFlight Track Log ✈ VH-HLS ✈ 13-Jun-2013 ✈ YGEL / GET - YPJT / JAD

Flight Track Log - Related Links

Times and Time Zones

All times are in EDT time to prevent confusion due to time zone crossing. See the VH-HLS flight status page for this flight to view local times or setup timezone preferences in your user account.

Time Position Orientation Groundspeed Altitude Reporting Facility
EDT Latitude Longitude Course Direction KTS MPH feet Rate Location/Type
10:51PM -28.7962 114.7075 169° South 9,000  Level Aus ATC (Calculated)
10:53PM -28.8904 114.7289 169° South 9,000  Level Aus ATC (Calculated)
10:54PM -28.8424 114.7191 168° South  Level FlightAware Approximate
10:55PM -28.9158 114.7353 168° South  Level FlightAware Approximate
10:56PM -28.9366 114.7406 168° South  Level FlightAware Approximate
10:57PM -28.9574 114.7458 168° South  Level FlightAware Approximate
10:58PM -28.9783 114.7511 168° South  Level FlightAware Approximate
10:58PM -29.0671 114.7692 169° South 9,000  Level Aus ATC (Calculated)
10:59PM -28.9991 114.7563 168° South  Level FlightAware Approximate
11:00PM -29.0926 114.7757 167° South  Level FlightAware Approximate
11:01PM -29.1145 114.7813 167° South  Level FlightAware Approximate
11:02PM -29.1364 114.7868 167° South  Level FlightAware Approximate
11:03PM -29.1583 114.7924 167° South  Level FlightAware Approximate
11:04PM -29.1802 114.7980 167° South  Level FlightAware Approximate
11:05PM -29.2021 114.8036 167° South  Level FlightAware Approximate
11:05PM -29.5447 114.8711 167° South 189 217 9,100  Level Aus ATC (RADAR)
11:06PM -29.2239 114.8092 167° South  Level FlightAware Approximate
11:07PM -29.6063 114.8853 169° South 192 221 9,100  Level Aus ATC (RADAR)
11:07PM -29.6376 114.8910 171° South 192 221 9,100  Level Aus ATC (RADAR)
11:07PM -29.6550 114.8965 165° South 195 224 9,100  Level Aus ATC (RADAR)
11:08PM -29.6853 114.9043 167° South 191 220 9,100  Level Aus ATC (RADAR)
11:09PM -29.7431 114.9158 170° South 194 223 9,100  Level Aus ATC (RADAR)
11:10PM -29.7735 114.9229 168° South 191 220 9,100  Level Aus ATC (RADAR)
11:11PM -29.8108 114.9352 164° South 187 215 9,100  Level Aus ATC (RADAR)
11:12PM -29.8790 114.9462 172° South 189 217 9,100  Level Aus ATC (RADAR)
11:12PM -29.9108 114.9516 172° South 186 214 9,100  Level Aus ATC (RADAR)
11:13PM -29.9238 114.9552 167° South 184 212 9,100  Level Aus ATC (RADAR)
11:13PM -29.9590 114.9644 167° South 190 219 9,100  Level Aus ATC (RADAR)
11:14PM -30.0043 114.9723 171° South 196 226 9,100  Level Aus ATC (RADAR)
11:15PM -30.0350 114.9794 169° South 195 224 9,100  Level Aus ATC (RADAR)
11:16PM -30.0834 114.9897 170° South 185 213 9,100  Level Aus ATC (RADAR)
11:16PM -30.0965 114.9933 167° South 187 215 9,100 -60 Level Aus ATC (RADAR)
11:17PM -30.1856 115.0104 171° South 194 223 9,000 -60 Descending Aus ATC (RADAR)
11:18PM -30.1991 115.0127 171° South 197 227 9,000  Level Aus ATC (RADAR)
11:18PM -30.2295 115.0211 167° South 191 220 9,000  Level Aus ATC (RADAR)
11:19PM -30.2700 115.0290 170° South 195 224 9,000  Level Aus ATC (RADAR)
11:20PM -30.3010 115.0374 167° South 193 222 9,000  Level Aus ATC (RADAR)
11:21PM -30.3497 115.0512 166° South 197 227 9,000  Level Aus ATC (RADAR)
11:22PM -30.4328 115.0763 165° South 188 216 9,000  Level Aus ATC (RADAR)
11:22PM -30.4465 115.0788 171° South 191 220 9,000  Level Aus ATC (RADAR)
11:23PM -30.4764 115.0894 163° South 189 217 9,000  Level Aus ATC (RADAR)
11:24PM -30.5238 115.1049 164° South 192 221 9,000  Level Aus ATC (RADAR)
11:24PM -30.5545 115.1131 167° South 192 221 9,000  Level Aus ATC (RADAR)
11:25PM -30.6030 115.1252 168° South 187 215 9,000  Level Aus ATC (RADAR)
11:26PM -30.6158 115.1289 166° South 186 214 9,000  Level Aus ATC (RADAR)
11:27PM -30.6718 115.1455 166° South 189 217 9,000  Level Aus ATC (RADAR)
11:27PM -30.7070 115.1548 167° South 194 223 9,000  Level Aus ATC (RADAR)
11:28PM -30.7540 115.1689 166° South 189 217 9,000  Level Aus ATC (RADAR)
11:29PM -30.7887 115.1798 165° South 190 219 9,000  Level Aus ATC (RADAR)
11:30PM -30.8201 115.1874 168° South 195 224 9,000  Level Aus ATC (RADAR)
11:30PM -30.8671 115.2027 164° South 192 221 9,000  Level Aus ATC (RADAR)
11:31PM -30.8803 115.2063 167° South 195 224 9,000  Level Aus ATC (RADAR)
11:32PM -30.9311 115.2218 165° South 186 214 9,000  Level Aus ATC (RADAR)
11:32PM -30.9612 115.2311 165° South 188 216 9,000  Level Aus ATC (RADAR)
11:33PM -30.9786 115.2362 166° South 189 217 9,000  Level Aus ATC (RADAR)
11:33PM -31.0087 115.2454 165° South 189 217 9,000  Level Aus ATC (RADAR)
11:34PM -31.0523 115.2582 166° South 193 222 9,000  Level Aus ATC (RADAR)
11:35PM -31.0829 115.2670 166° South 191 220 9,000  Level Aus ATC (RADAR)
11:36PM -31.1355 115.2827 166° South 192 221 9,000  Level Aus ATC (RADAR)
11:36PM -31.1656 115.2914 166° South 188 216 9,000  Level Aus ATC (RADAR)
11:37PM -31.2267 115.3089 166° South 192 221 9,000  Level Aus ATC (RADAR)
11:38PM -31.2444 115.3137 167° South 192 221 9,000  Level Aus ATC (RADAR)
11:38PM -31.2753 115.3220 167° South 192 221 9,000  Level Aus ATC (RADAR)
11:39PM -31.3280 115.3372 166° South 194 223 9,000 -240 Level Aus ATC (RADAR)
11:40PM -31.3595 115.3468 165° South 201 231 8,700 -420 Descending Aus ATC (RADAR)
11:41PM -31.4143 115.3641 165° South 203 234 8,400 -480 Descending Aus ATC (RADAR)
11:41PM -31.4463 115.3741 165° South 202 232 8,000 -540 Descending Aus ATC (RADAR)
11:43PM -31.5204 115.3957 166° South 206 237 7,400 -480 Descending Aus ATC (RADAR)
11:43PM -31.5344 115.4000 165° South 206 237 7,300 -480 Descending Aus ATC (RADAR)
11:44PM -31.5715 115.4118 165° South 208 239 7,000 -600 Descending Aus ATC (RADAR)
11:45PM -31.6209 115.4324 160° South 205 236 6,400 -600 Descending Aus ATC (RADAR)
11:45PM -31.6537 115.4425 165° South 206 237 6,100 -660 Descending Aus ATC (RADAR)
11:46PM -31.7098 115.4560 168° South 204 235 5,400 -660 Descending Aus ATC (RADAR)
11:47PM -31.7798 115.4693 171° South 203 234 4,700 -660 Descending Aus ATC (RADAR)
11:48PM -31.8120 115.4765 169° South 201 231 4,300 -720 Descending Aus ATC (RADAR)
11:48PM -31.8259 115.4804 166° South 203 234 4,100 -600 Descending Aus ATC (RADAR)
11:49PM -31.8624 115.4898 168° South 201 231 3,800 -600 Descending Aus ATC (RADAR)
11:50PM -31.9124 115.5049 166° South 202 232 3,200 -720 Descending Aus ATC (RADAR)
11:50PM -31.9351 115.5239 145° Southeast 199 229 2,800 -780 Descending Aus ATC (RADAR)
11:52PM -31.9874 115.5881 134° Southeast 187 215 1,800 -360 Descending Aus ATC (RADAR)
11:53PM -32.0174 115.6394 125° Southeast 166 191 1,900 -180 Climbing Aus ATC (RADAR)
11:53PM -32.0398 115.6679 133° Southeast 176 203 1,500 -180 Descending Aus ATC (RADAR)
11:54PM -32.0653 115.7032 130° Southeast 166 191 1,700  Climbing Aus ATC (RADAR)
11:55PM -32.0910 115.7443 126° Southeast 165 190 1,600 -120 Descending Aus ATC (RADAR)
11:56PM -32.0938 115.7757 96° East 161 185 1,600 60 Level Aus ATC (RADAR)
11:57PM -32.0958 115.8186 93° East 120 138 1,700 -420 Climbing Aus ATC (RADAR)
11:58PM -32.1107 115.8471 122° Southeast 108 124 900 -840 Descending Aus ATC (RADAR)
11:58PM -32.1037 115.8688 69° East 98 113 300 -240 Descending Aus ATC (RADAR)
11:59PM -32.0939 115.8861 56° Northeast 110 127 600 480 Climbing Aus ATC (RADAR)
12:00AM -32.0845 115.8546 290° West 153 176 1,100 540 Climbing Aus ATC (RADAR)